createdAt,value
2023-10-02T00:02:23.637Z,40.89
2023-10-02T00:04:51.552Z,40.73
2023-10-02T00:07:18.058Z,40.66
2023-10-02T00:09:44.679Z,41.04
2023-10-02T00:12:11.137Z,41.19
2023-10-02T00:14:37.677Z,41.49
2023-10-02T00:17:04.214Z,42.06
2023-10-02T00:19:30.723Z,41.89
2023-10-02T00:21:57.188Z,41.24
2023-10-02T00:24:23.610Z,41.07
2023-10-02T00:26:50.050Z,41.45
2023-10-02T00:29:16.544Z,41.19
2023-10-02T00:31:43.145Z,41.43
2023-10-02T00:34:09.607Z,41.30
2023-10-02T00:36:36.039Z,41.55
2023-10-02T00:39:02.499Z,41.55
2023-10-02T00:41:29.171Z,41.76
2023-10-02T00:43:55.912Z,41.97
2023-10-02T00:46:22.497Z,42.57
2023-10-02T00:48:48.965Z,42.20
2023-10-02T00:51:15.674Z,41.77
2023-10-02T00:53:42.364Z,42.04
2023-10-02T00:56:08.777Z,41.97
2023-10-02T00:58:35.651Z,41.90
2023-10-02T01:01:02.206Z,41.71
2023-10-02T01:03:28.829Z,41.71
2023-10-02T01:05:55.476Z,41.32
2023-10-02T01:08:22.061Z,41.55
2023-10-02T01:10:48.927Z,41.65
2023-10-02T01:13:15.476Z,41.76
2023-10-02T01:15:50.051Z,41.44
2023-10-02T01:18:17.227Z,41.69
2023-10-02T01:20:43.945Z,41.94
2023-10-02T01:23:10.628Z,41.50
2023-10-02T01:25:37.097Z,41.65
2023-10-02T01:28:03.540Z,41.81
2023-10-02T01:30:29.997Z,41.93
2023-10-02T01:32:56.478Z,41.77
2023-10-02T01:35:22.948Z,41.92
2023-10-02T01:37:49.713Z,41.84
2023-10-02T01:40:16.173Z,41.78
2023-10-02T01:42:42.614Z,41.65
2023-10-02T01:45:09.037Z,42.47
2023-10-02T01:47:36.557Z,42.29
2023-10-02T01:50:03.014Z,42.12
2023-10-02T01:52:41.825Z,42.12
2023-10-02T01:55:17.193Z,42.19
2023-10-02T01:57:44.020Z,42.04
2023-10-02T02:00:10.584Z,42.11
2023-10-02T02:02:37.157Z,42.15
2023-10-02T02:05:08.210Z,42.13
2023-10-02T02:07:34.806Z,42.21
2023-10-02T02:10:01.265Z,41.95
2023-10-02T02:12:27.842Z,42.43
2023-10-02T02:14:55.286Z,42.04
2023-10-02T02:17:26.372Z,42.35
2023-10-02T02:19:55.418Z,42.62
2023-10-02T02:22:21.888Z,42.54
2023-10-02T02:24:48.289Z,42.51
2023-10-02T02:27:15.676Z,42.29
2023-10-02T02:29:42.141Z,42.14
2023-10-02T02:32:08.806Z,42.48
2023-10-02T02:34:35.597Z,42.58
2023-10-02T02:37:02.127Z,42.61
2023-10-02T02:39:28.549Z,42.53
2023-10-02T02:41:56.036Z,43.03
2023-10-02T02:44:22.424Z,42.94
2023-10-02T02:46:49.001Z,42.75
2023-10-02T02:49:15.663Z,42.87
2023-10-02T02:51:42.436Z,43.12
2023-10-02T02:54:10.312Z,43.26
2023-10-02T02:56:36.927Z,43.41
2023-10-02T02:59:03.470Z,43.58
2023-10-02T03:01:29.938Z,43.46
2023-10-02T03:03:57.674Z,43.72
2023-10-02T03:06:24.279Z,43.54
2023-10-02T03:08:50.952Z,43.81
2023-10-02T03:11:17.346Z,44.77
2023-10-02T03:13:43.799Z,44.33
2023-10-02T03:16:10.297Z,44.53
2023-10-02T03:18:36.958Z,44.87
2023-10-02T03:21:03.324Z,44.74
2023-10-02T03:23:32.482Z,44.72
2023-10-02T03:25:59.100Z,44.95
2023-10-02T03:28:25.883Z,44.66
2023-10-02T03:30:52.490Z,44.76
2023-10-02T03:33:19.086Z,44.82
2023-10-02T03:35:45.546Z,45.26
2023-10-02T03:38:14.085Z,45.48
2023-10-02T03:40:40.823Z,45.34
2023-10-02T03:43:07.276Z,45.32
2023-10-02T03:45:33.915Z,44.95
2023-10-02T03:48:01.059Z,45.71
2023-10-02T03:50:27.645Z,46.09
2023-10-02T03:52:54.349Z,45.69
2023-10-02T03:55:20.848Z,45.64
2023-10-02T03:57:47.316Z,45.11
2023-10-02T04:00:13.836Z,44.95
2023-10-02T04:02:40.373Z,44.85
2023-10-02T04:05:06.923Z,44.60
2023-10-02T04:07:33.400Z,44.52
2023-10-02T04:09:59.887Z,44.31
2023-10-02T04:12:26.897Z,44.00
2023-10-02T04:14:53.294Z,44.32
2023-10-02T04:17:19.843Z,44.11
2023-10-02T04:19:46.303Z,44.16
2023-10-02T04:22:12.671Z,44.12
2023-10-02T04:24:39.183Z,44.15
2023-10-02T04:27:05.544Z,44.18
2023-10-02T04:29:32.187Z,44.45
2023-10-02T04:31:59.763Z,44.05
2023-10-02T04:34:26.353Z,44.22
2023-10-02T04:36:52.934Z,44.16
2023-10-02T04:39:19.401Z,44.16
2023-10-02T04:41:46.201Z,44.22
2023-10-02T04:44:12.685Z,44.45
2023-10-02T04:46:39.288Z,44.49
2023-10-02T04:49:06.111Z,44.53
2023-10-02T04:51:32.542Z,44.31
2023-10-02T04:53:59.090Z,44.71
2023-10-02T04:56:25.638Z,45.08
2023-10-02T04:58:52.294Z,44.87
2023-10-02T05:01:19.095Z,44.61
2023-10-02T05:03:45.772Z,44.58
2023-10-02T05:06:12.546Z,44.61
2023-10-02T05:08:39.013Z,44.75
2023-10-02T05:11:05.832Z,44.96
2023-10-02T05:13:32.347Z,45.25
2023-10-02T05:15:59.038Z,45.00
2023-10-02T05:18:25.531Z,45.04
2023-10-02T05:20:55.078Z,44.93
2023-10-02T05:23:26.372Z,45.13
2023-10-02T05:25:53.535Z,45.01
2023-10-02T05:28:20.101Z,45.01
2023-10-02T05:30:47.016Z,45.08
2023-10-02T05:33:13.527Z,45.05
2023-10-02T05:35:40.364Z,45.02
2023-10-02T05:38:06.807Z,45.08
2023-10-02T05:40:35.624Z,45.00
2023-10-02T05:43:02.339Z,44.97
2023-10-02T05:45:29.812Z,44.86
2023-10-02T05:47:56.784Z,45.06
2023-10-02T05:50:23.252Z,45.01
2023-10-02T05:52:49.784Z,45.08
2023-10-02T05:55:16.382Z,45.00
2023-10-02T05:57:43.058Z,45.01
2023-10-02T06:00:09.462Z,44.98
2023-10-02T06:02:35.977Z,45.07
2023-10-02T06:05:02.691Z,45.06
2023-10-02T06:07:30.285Z,44.50
2023-10-02T06:09:56.685Z,45.10
2023-10-02T06:12:23.181Z,44.71
2023-10-02T06:14:50.453Z,44.91
2023-10-02T06:17:17.732Z,44.86
2023-10-02T06:19:44.335Z,44.85
2023-10-02T06:22:10.901Z,45.57
2023-10-02T06:24:38.054Z,45.76
2023-10-02T06:27:04.718Z,46.31
2023-10-02T06:29:31.253Z,46.07
2023-10-02T06:31:58.783Z,45.92
2023-10-02T06:34:26.058Z,45.72
2023-10-02T06:36:52.811Z,45.91
2023-10-02T06:39:19.350Z,45.91
2023-10-02T06:41:45.792Z,45.70
2023-10-02T06:44:12.633Z,44.91
2023-10-02T06:46:39.516Z,45.14
2023-10-02T06:49:08.429Z,45.61
2023-10-02T06:51:35.025Z,45.81
2023-10-02T06:54:09.104Z,45.93
2023-10-02T06:56:35.602Z,45.98
2023-10-02T06:59:02.757Z,45.86
2023-10-02T07:01:29.724Z,45.54
2023-10-02T07:03:56.627Z,45.67
2023-10-02T07:06:23.285Z,45.60
2023-10-02T07:08:50.115Z,45.86
2023-10-02T07:11:17.493Z,45.33
2023-10-02T07:13:44.040Z,45.84
2023-10-02T07:16:10.659Z,45.81
2023-10-02T07:18:37.198Z,45.42
2023-10-02T07:21:04.392Z,45.66
2023-10-02T07:23:31.389Z,45.50
2023-10-02T07:26:00.377Z,45.08
2023-10-02T07:28:26.851Z,45.42
2023-10-02T07:30:53.288Z,45.40
2023-10-02T07:33:23.377Z,45.34
2023-10-02T07:35:49.946Z,44.69
2023-10-02T07:38:16.520Z,45.02
2023-10-02T07:40:43.389Z,45.07
2023-10-02T07:43:09.952Z,44.68
2023-10-02T07:45:36.566Z,44.71
2023-10-02T07:48:03.105Z,44.86
2023-10-02T07:50:29.675Z,44.83
2023-10-02T07:52:57.221Z,44.57
2023-10-02T07:55:24.115Z,43.87
2023-10-02T07:57:50.949Z,43.92
2023-10-02T08:00:17.381Z,44.15
2023-10-02T08:02:43.878Z,43.66
2023-10-02T08:05:10.990Z,43.81
2023-10-02T08:07:45.572Z,43.48
2023-10-02T08:10:13.166Z,43.56
2023-10-02T08:12:41.173Z,43.81
2023-10-02T08:15:07.657Z,43.63
2023-10-02T08:17:34.185Z,42.94
2023-10-02T08:20:01.232Z,43.08
2023-10-02T08:22:28.047Z,42.72
2023-10-02T08:24:57.017Z,43.33
2023-10-02T08:27:23.639Z,41.94
2023-10-02T08:29:50.138Z,43.07
2023-10-02T08:32:16.776Z,41.70
2023-10-02T08:34:43.403Z,41.41
2023-10-02T08:37:09.976Z,41.41
2023-10-02T08:39:36.462Z,42.02
2023-10-02T08:42:02.869Z,41.50
2023-10-02T08:44:29.741Z,42.01
2023-10-02T08:46:56.492Z,41.60
2023-10-02T08:49:23.122Z,41.50
2023-10-02T08:51:50.594Z,41.23
2023-10-02T08:54:17.632Z,40.25
2023-10-02T08:56:44.379Z,40.83
2023-10-02T08:59:11.217Z,40.99
2023-10-02T09:01:37.852Z,40.17
2023-10-02T09:04:04.417Z,39.81
2023-10-02T09:06:31.259Z,39.62
2023-10-02T09:08:57.675Z,40.05
2023-10-02T09:11:24.538Z,40.32
2023-10-02T09:13:50.967Z,40.31
2023-10-02T09:16:17.437Z,40.51
2023-10-02T09:18:44.364Z,39.77
2023-10-02T09:21:10.752Z,39.56
2023-10-02T09:23:38.305Z,38.88
2023-10-02T09:26:04.954Z,39.61
2023-10-02T09:28:31.692Z,38.90
2023-10-02T09:30:58.516Z,39.76
2023-10-02T09:33:31.402Z,39.28
2023-10-02T09:36:32.928Z,38.25
2023-10-02T09:38:58.155Z,39.33
2023-10-02T09:41:27.230Z,38.55
2023-10-02T09:43:53.929Z,38.21
2023-10-02T09:46:21.557Z,37.65
2023-10-02T09:48:48.832Z,36.81
2023-10-02T09:51:15.316Z,36.22
2023-10-02T09:53:44.132Z,36.58
2023-10-02T09:56:10.684Z,37.04
2023-10-02T09:58:37.148Z,35.39
2023-10-02T10:01:03.569Z,36.50
2023-10-02T10:03:30.480Z,36.79
2023-10-02T10:05:58.545Z,36.58
2023-10-02T10:08:26.797Z,36.98
2023-10-02T10:10:53.532Z,37.35
2023-10-02T10:13:21.584Z,36.87
2023-10-02T10:15:48.328Z,36.52
2023-10-02T10:18:15.230Z,36.83
2023-10-02T10:20:42.894Z,35.57
2023-10-02T10:23:09.404Z,34.38
2023-10-02T10:25:35.917Z,33.52
2023-10-02T10:28:02.409Z,34.95
2023-10-02T10:30:29.381Z,34.50
2023-10-02T10:32:56.191Z,33.16
2023-10-02T10:35:23.061Z,33.20
2023-10-02T10:37:49.766Z,33.68
2023-10-02T10:40:16.636Z,34.01
2023-10-02T10:42:43.311Z,33.57
2023-10-02T10:45:13.435Z,33.22
2023-10-02T10:47:40.030Z,33.31
2023-10-02T10:50:06.756Z,32.53
2023-10-02T10:52:33.277Z,32.23
2023-10-02T10:55:00.861Z,32.30
2023-10-02T10:57:29.307Z,33.33
2023-10-02T10:59:55.982Z,32.90
2023-10-02T11:02:22.652Z,33.13
2023-10-02T11:04:49.358Z,32.49
2023-10-02T11:07:16.132Z,32.79
2023-10-02T11:09:43.677Z,32.97
2023-10-02T11:12:10.240Z,32.82
2023-10-02T11:14:37.234Z,32.89
2023-10-02T11:17:04.201Z,32.86
2023-10-02T11:19:30.674Z,33.66
2023-10-02T11:21:57.112Z,33.39
2023-10-02T11:24:23.640Z,33.58
2023-10-02T11:26:50.333Z,33.22
2023-10-02T11:29:19.487Z,33.04
2023-10-02T11:31:46.272Z,33.13
2023-10-02T11:36:42.711Z,32.62
2023-10-02T11:39:09.160Z,33.29
2023-10-02T11:41:38.114Z,33.32
2023-10-02T11:44:04.883Z,33.16
2023-10-02T11:46:31.376Z,33.30
2023-10-02T11:48:58.096Z,33.13
2023-10-02T11:51:24.567Z,33.31
2023-10-02T11:53:51.038Z,33.15
2023-10-02T11:56:17.584Z,32.71
2023-10-02T11:58:44.437Z,33.26
2023-10-02T12:01:10.856Z,33.25
2023-10-02T12:03:37.739Z,32.67
2023-10-02T12:06:04.312Z,32.38
2023-10-02T12:08:30.767Z,32.59
2023-10-02T12:10:57.275Z,33.16
2023-10-02T12:13:23.782Z,33.34
2023-10-02T12:15:50.823Z,33.03
2023-10-02T12:18:17.339Z,33.08
2023-10-02T12:20:44.103Z,32.97
2023-10-02T12:23:10.853Z,33.09
2023-10-02T12:25:37.412Z,32.90
2023-10-02T12:28:03.986Z,33.47
2023-10-02T12:30:30.395Z,32.54
2023-10-02T12:32:56.869Z,32.60
2023-10-02T12:35:23.522Z,33.14
2023-10-02T12:37:49.981Z,32.25
2023-10-02T12:40:16.439Z,33.02
2023-10-02T12:42:42.891Z,32.61
2023-10-02T12:45:09.399Z,32.88
2023-10-02T12:47:36.044Z,32.07
2023-10-02T12:50:03.694Z,32.54
2023-10-02T12:52:30.805Z,32.54
2023-10-02T12:54:57.771Z,33.05
2023-10-02T12:57:24.498Z,32.34
2023-10-02T12:59:51.030Z,32.87
2023-10-02T13:02:17.575Z,32.73
2023-10-02T13:04:44.569Z,32.83
2023-10-02T13:07:10.987Z,32.90
2023-10-02T13:09:39.908Z,32.85
2023-10-02T13:12:07.596Z,32.91
2023-10-02T13:14:34.103Z,32.79
2023-10-02T13:17:00.669Z,33.13
2023-10-02T13:19:27.130Z,32.27
2023-10-02T13:21:54.454Z,32.92
2023-10-02T13:24:21.356Z,33.12
2023-10-02T13:26:48.311Z,33.00
2023-10-02T13:29:14.797Z,32.70
2023-10-02T13:31:41.766Z,32.96
2023-10-02T13:34:08.410Z,32.91
2023-10-02T13:36:35.511Z,32.36
2023-10-02T13:39:02.608Z,32.80
2023-10-02T13:41:29.378Z,32.37
2023-10-02T13:43:57.252Z,32.14
2023-10-02T13:46:24.103Z,32.02
2023-10-02T13:48:50.859Z,32.22
2023-10-02T13:51:17.420Z,32.47
2023-10-02T13:53:43.918Z,32.69
2023-10-02T13:56:11.871Z,32.15
2023-10-02T13:58:38.413Z,31.75
2023-10-02T14:01:05.127Z,31.48
2023-10-02T14:03:31.823Z,31.90
2023-10-02T14:05:58.378Z,31.90
2023-10-02T14:08:25.753Z,30.93
2023-10-02T14:10:52.684Z,31.83
2023-10-02T14:13:19.305Z,31.74
2023-10-02T14:15:46.237Z,32.29
2023-10-02T14:18:13.266Z,31.81
2023-10-02T14:20:41.814Z,31.58
2023-10-02T14:23:08.780Z,31.51
2023-10-02T14:25:35.376Z,31.22
2023-10-02T14:28:01.998Z,31.24
2023-10-02T14:30:28.470Z,31.44
2023-10-02T14:32:57.334Z,31.37
2023-10-02T14:35:25.744Z,31.54
2023-10-02T14:37:52.309Z,31.08
2023-10-02T14:40:19.067Z,30.76
2023-10-02T14:42:55.117Z,31.23
2023-10-02T14:45:21.659Z,31.11
2023-10-02T14:47:48.383Z,30.81
2023-10-02T14:50:15.043Z,30.66
2023-10-02T14:52:41.887Z,31.00
2023-10-02T14:55:09.513Z,30.91
2023-10-02T14:57:36.237Z,31.05
2023-10-02T15:00:02.921Z,30.62
2023-10-02T15:02:29.679Z,30.68
2023-10-02T15:04:56.770Z,30.86
2023-10-02T15:07:23.395Z,31.11
2023-10-02T15:09:49.910Z,30.63
2023-10-02T15:12:17.402Z,30.79
2023-10-02T15:14:43.803Z,30.94
2023-10-02T15:17:10.423Z,31.18
2023-10-02T15:19:37.608Z,30.99
2023-10-02T15:22:04.209Z,31.38
2023-10-02T15:24:30.821Z,31.33
2023-10-02T15:26:59.693Z,31.09
2023-10-02T15:29:26.282Z,31.41
2023-10-02T15:31:52.922Z,30.89
2023-10-02T15:34:19.401Z,31.56
2023-10-02T15:36:45.837Z,31.51
2023-10-02T15:39:12.310Z,32.00
2023-10-02T15:41:38.813Z,31.46
2023-10-02T15:44:05.675Z,32.11
2023-10-02T15:46:32.390Z,32.20
2023-10-02T15:48:59.085Z,32.44
2023-10-02T15:51:26.706Z,32.67
2023-10-02T15:53:55.563Z,32.98
2023-10-02T15:56:25.763Z,32.46
2023-10-02T15:58:52.646Z,33.15
2023-10-02T16:01:19.114Z,33.54
2023-10-02T16:03:46.024Z,33.45
2023-10-02T16:06:12.489Z,33.26
2023-10-02T16:08:38.954Z,33.59
2023-10-02T16:11:05.484Z,33.33
2023-10-02T16:13:32.040Z,33.76
2023-10-02T16:15:58.912Z,33.82
2023-10-02T16:18:25.421Z,33.94
2023-10-02T16:20:54.283Z,33.83
2023-10-02T16:23:20.718Z,34.14
2023-10-02T16:25:54.645Z,34.06
2023-10-02T16:28:21.093Z,33.78
2023-10-02T16:30:49.957Z,33.75
2023-10-02T16:33:17.038Z,33.74
2023-10-02T16:35:43.579Z,34.01
2023-10-02T16:38:11.154Z,34.08
2023-10-02T16:40:37.700Z,34.10
2023-10-02T16:43:06.346Z,34.44
2023-10-02T16:45:33.233Z,34.17
2023-10-02T16:48:00.517Z,34.46
2023-10-02T16:52:53.468Z,34.57
2023-10-02T16:55:20.328Z,34.95
2023-10-02T16:57:46.752Z,34.85
2023-10-02T17:00:13.526Z,35.14
2023-10-02T17:02:40.281Z,34.84
2023-10-02T17:05:10.216Z,35.08
2023-10-02T17:07:37.792Z,35.08
2023-10-02T17:10:04.799Z,35.57
2023-10-02T17:12:31.418Z,35.66
2023-10-02T17:14:58.214Z,35.65
2023-10-02T17:17:24.958Z,35.52
2023-10-02T17:19:51.493Z,35.69
2023-10-02T17:22:18.361Z,35.78
2023-10-02T17:27:25.695Z,36.20
2023-10-02T17:29:53.699Z,36.11
2023-10-02T17:32:20.950Z,36.51
2023-10-02T17:34:48.074Z,36.42
2023-10-02T17:37:15.333Z,36.46
2023-10-02T17:39:42.631Z,35.87
2023-10-02T17:42:10.494Z,36.26
2023-10-02T17:44:39.127Z,36.55
2023-10-02T17:47:06.527Z,36.28
2023-10-02T17:49:33.918Z,36.51
2023-10-02T17:52:05.362Z,36.51
2023-10-02T17:54:32.823Z,36.24
2023-10-02T17:57:04.732Z,36.62
2023-10-02T17:59:31.996Z,36.55
2023-10-02T18:01:59.496Z,36.24
2023-10-02T18:04:26.966Z,36.71
2023-10-02T18:06:54.355Z,36.68
2023-10-02T18:09:21.762Z,36.62
2023-10-02T18:11:49.167Z,36.68
2023-10-02T18:14:16.808Z,36.53
2023-10-02T18:16:44.104Z,37.44
2023-10-02T18:19:11.435Z,37.04
2023-10-02T18:21:38.990Z,37.06
2023-10-02T18:24:08.803Z,36.96
2023-10-02T18:26:36.112Z,37.06
2023-10-02T18:29:03.678Z,37.01
2023-10-02T18:31:31.219Z,36.87
2023-10-02T18:33:58.519Z,36.74
2023-10-02T18:36:25.934Z,37.06
2023-10-02T18:38:53.237Z,37.13
2023-10-02T18:41:20.630Z,37.31
2023-10-02T18:43:48.093Z,37.50
2023-10-02T18:46:15.387Z,37.35
2023-10-02T18:48:45.744Z,37.43
2023-10-02T18:51:13.058Z,37.76
2023-10-02T18:53:40.577Z,37.60
2023-10-02T18:56:08.091Z,37.28
2023-10-02T18:58:35.499Z,37.50
2023-10-02T19:01:03.468Z,38.09
2023-10-02T19:03:31.020Z,37.76
2023-10-02T19:05:58.450Z,38.19
2023-10-02T19:08:26.766Z,37.88
2023-10-02T19:10:54.117Z,37.94
2023-10-02T19:13:22.055Z,38.24
2023-10-02T19:15:49.510Z,38.05
2023-10-02T19:18:16.932Z,37.96
2023-10-02T19:20:44.731Z,38.09
2023-10-02T19:23:12.192Z,38.11
2023-10-02T19:25:39.785Z,38.18
2023-10-02T19:28:07.047Z,38.39
2023-10-02T19:30:34.408Z,38.25
2023-10-02T19:33:01.907Z,38.04
2023-10-02T19:35:29.334Z,38.00
2023-10-02T19:37:56.700Z,37.87
2023-10-02T19:40:24.020Z,38.64
2023-10-02T19:42:54.314Z,38.36
2023-10-02T19:45:21.802Z,37.93
2023-10-02T19:47:54.786Z,38.36
2023-10-02T19:50:22.054Z,38.74
2023-10-02T19:52:49.746Z,38.73
2023-10-02T19:55:17.013Z,38.62
2023-10-02T19:57:44.349Z,38.67
2023-10-02T20:00:12.044Z,38.76
2023-10-02T20:02:39.743Z,39.06
2023-10-02T20:05:09.392Z,39.01
2023-10-02T20:07:38.247Z,38.47
2023-10-02T20:10:05.563Z,39.14
2023-10-02T20:12:34.106Z,39.16
2023-10-02T20:15:01.344Z,39.32
2023-10-02T20:17:28.854Z,38.85
2023-10-02T20:19:56.742Z,39.28
2023-10-02T20:22:23.950Z,38.95
2023-10-02T20:24:52.552Z,39.15
2023-10-02T20:27:20.705Z,38.74
2023-10-02T20:29:50.024Z,39.35
2023-10-02T20:32:18.192Z,39.04
2023-10-02T20:34:45.058Z,39.46
2023-10-02T20:37:11.583Z,39.03
2023-10-02T20:39:38.464Z,39.48
2023-10-02T20:42:05.376Z,39.73
2023-10-02T20:44:32.076Z,39.33
2023-10-02T20:47:11.497Z,39.73
2023-10-02T20:49:41.573Z,39.98
2023-10-02T20:52:08.317Z,39.68
2023-10-02T20:54:34.713Z,39.67
2023-10-02T20:57:01.108Z,39.81
2023-10-02T20:59:27.602Z,39.83
2023-10-02T21:02:01.212Z,40.19
2023-10-02T21:04:27.995Z,40.26
2023-10-02T21:06:54.486Z,40.51
2023-10-02T21:09:20.930Z,40.40
2023-10-02T21:11:47.609Z,40.34
2023-10-02T21:14:16.749Z,40.05
2023-10-02T21:16:43.409Z,40.18
2023-10-02T21:19:10.012Z,39.98
2023-10-02T21:21:36.466Z,40.32
2023-10-02T21:24:02.857Z,40.39
2023-10-02T21:26:29.605Z,40.41
2023-10-02T21:28:57.123Z,40.20
2023-10-02T21:31:23.988Z,40.51
2023-10-02T21:33:50.497Z,40.14
2023-10-02T21:36:17.064Z,40.17
2023-10-02T21:38:43.770Z,40.55
2023-10-02T21:41:10.269Z,40.37
2023-10-02T21:43:36.805Z,40.75
2023-10-02T21:46:03.288Z,40.70
2023-10-02T21:48:29.794Z,40.51
2023-10-02T21:50:56.282Z,40.72
2023-10-02T21:53:22.732Z,41.00
2023-10-02T21:55:49.240Z,41.06
2023-10-02T21:58:15.882Z,40.71
2023-10-02T22:00:42.473Z,40.98
2023-10-02T22:03:09.186Z,41.22
2023-10-02T22:05:35.730Z,41.10
2023-10-02T22:08:02.345Z,40.74
2023-10-02T22:10:28.963Z,40.83
2023-10-02T22:12:56.142Z,40.79
2023-10-02T22:15:22.611Z,41.21
2023-10-02T22:17:49.671Z,40.92
2023-10-02T22:20:16.484Z,41.45
2023-10-02T22:22:43.491Z,41.11
2023-10-02T22:25:09.950Z,41.10
2023-10-02T22:27:38.617Z,41.01
2023-10-02T22:30:05.019Z,41.20
2023-10-02T22:32:31.563Z,41.35
2023-10-02T22:35:01.112Z,41.36
2023-10-02T22:37:27.793Z,41.23
2023-10-02T22:39:54.563Z,41.50
2023-10-02T22:42:20.977Z,41.52
2023-10-02T22:44:50.419Z,41.25
2023-10-02T22:47:16.885Z,42.01
2023-10-02T22:49:43.328Z,41.85
2023-10-02T22:52:10.025Z,41.64
2023-10-02T22:54:36.443Z,42.01
2023-10-02T22:57:03.474Z,41.90
2023-10-02T22:59:30.148Z,41.99
2023-10-02T23:01:56.568Z,42.13
2023-10-02T23:04:23.037Z,41.83
2023-10-02T23:06:49.476Z,42.11
2023-10-02T23:09:15.900Z,42.28
2023-10-02T23:11:42.668Z,42.02
2023-10-02T23:14:09.407Z,42.02
2023-10-02T23:16:35.822Z,42.47
2023-10-02T23:19:04.462Z,42.55
2023-10-02T23:21:31.019Z,42.35
2023-10-02T23:23:57.436Z,42.61
2023-10-02T23:26:24.224Z,42.85
2023-10-02T23:28:51.688Z,42.51
2023-10-02T23:31:25.501Z,42.60
2023-10-02T23:33:52.035Z,43.06
2023-10-02T23:36:18.470Z,42.74
2023-10-02T23:38:47.003Z,42.94
2023-10-02T23:41:13.530Z,43.00
2023-10-02T23:43:40.339Z,43.11
2023-10-02T23:46:07.066Z,42.92
2023-10-02T23:48:34.600Z,42.87
2023-10-02T23:51:01.114Z,42.63
2023-10-02T23:53:27.749Z,42.85
2023-10-02T23:55:54.136Z,42.76
2023-10-02T23:58:20.570Z,42.62
